Time;durP1;ratioP1;P1;durP2;ratioP2;P2;SDS_P1;SDS_P2;PMS_P1;PMS_P2;Temp;Humidity;BMP_temperature;BMP_pressure;BME280_temperature;BME280_humidity;BME280_pressure;Samples;Min_cycle;Max_cycle;Signal;HPM_P1;HPM_P2
2021/04/11 00:00:15;;;;;;;2.50;1.23;;;3.30;94.90;;;;;;3601674;39;20072;-74
2021/04/11 00:02:41;;;;;;;1.95;0.73;;;3.30;94.80;;;;;;3606644;39;20040;-76
2021/04/11 00:05:07;;;;;;;4.38;0.93;;;3.30;94.80;;;;;;3607029;39;20307;-80
2021/04/11 00:07:34;;;;;;;4.32;1.02;;;3.30;94.70;;;;;;3606967;39;20047;-75
2021/04/11 00:10:00;;;;;;;1.30;0.75;;;3.30;95.10;;;;;;3606697;39;20070;-75
2021/04/11 00:12:26;;;;;;;1.45;0.40;;;3.30;95.00;;;;;;3606496;39;20068;-76
2021/04/11 00:14:51;;;;;;;2.55;0.95;;;3.30;94.90;;;;;;3606801;39;20036;-76
2021/04/11 00:17:17;;;;;;;3.35;0.90;;;3.40;95.20;;;;;;3595715;40;20044;-83
2021/04/11 00:19:43;;;;;;;1.35;1.00;;;3.40;95.50;;;;;;3596317;40;20128;-81
2021/04/11 00:22:09;;;;;;;2.03;0.75;;;3.40;96.00;;;;;;3596835;40;20337;-77
2021/04/11 00:24:35;;;;;;;3.63;0.70;;;3.50;95.70;;;;;;3596434;40;20040;-76
2021/04/11 00:27:01;;;;;;;1.52;0.40;;;3.50;95.40;;;;;;3587259;40;20049;-76
2021/04/11 00:29:26;;;;;;;1.38;1.27;;;3.50;95.20;;;;;;3603067;39;20044;-76
2021/04/11 00:31:52;;;;;;;1.20;0.40;;;3.50;94.90;;;;;;3606453;39;20556;-79
2021/04/11 00:34:18;;;;;;;3.03;1.23;;;3.50;95.00;;;;;;3606643;39;20051;-78
2021/04/11 00:36:44;;;;;;;1.38;0.47;;;3.50;95.00;;;;;;3586708;40;20036;-76
2021/04/11 00:39:10;;;;;;;2.28;0.73;;;3.40;94.90;;;;;;3596426;40;20042;-77
2021/04/11 00:41:44;;;;;;;1.00;0.52;;;3.40;94.90;;;;;;3601137;39;20421;-75
2021/04/11 00:44:11;;;;;;;;;;;3.40;95.20;;;;;;3607339;39;20043;-76
2021/04/11 00:46:43;;;;;;;1.50;0.52;;;3.40;95.20;;;;;;3596804;39;20207;-76
2021/04/11 00:49:16;;;;;;;2.00;0.52;;;3.40;95.30;;;;;;3606854;39;20128;-76
2021/04/11 00:51:42;;;;;;;1.23;0.57;;;3.40;95.50;;;;;;3606589;39;20337;-75
2021/04/11 00:54:08;;;;;;;3.00;0.73;;;3.40;95.30;;;;;;3606797;39;20040;-76
2021/04/11 00:56:38;;;;;;;3.58;0.88;;;3.40;95.20;;;;;;3606211;39;20054;-79
2021/04/11 00:59:06;;;;;;;2.92;1.23;;;3.40;95.40;;;;;;3606532;39;20052;-76
2021/04/11 01:01:33;;;;;;;1.85;0.40;;;3.30;95.20;;;;;;3596900;39;20044;-77
2021/04/11 01:03:59;;;;;;;3.20;0.85;;;3.30;95.20;;;;;;3606301;39;20047;-79
2021/04/11 01:06:31;;;;;;;1.35;0.40;;;3.30;95.20;;;;;;3596867;39;20274;-76
2021/04/11 01:08:58;;;;;;;0.73;0.30;;;3.20;95.20;;;;;;3605606;39;20051;-75
2021/04/11 01:11:32;;;;;;;0.90;0.20;;;3.30;95.50;;;;;;3606318;39;20047;-78
2021/04/11 01:14:01;;;;;;;2.53;0.50;;;3.30;95.60;;;;;;3588483;39;20216;-81
2021/04/11 01:16:28;;;;;;;4.00;0.65;;;3.30;95.50;;;;;;3596265;39;20036;-78
2021/04/11 01:18:54;;;;;;;2.22;0.47;;;3.30;95.50;;;;;;3596897;39;20140;-78
2021/04/11 01:21:30;;;;;;;0.98;0.55;;;3.30;95.40;;;;;;3606019;39;20079;-77
2021/04/11 01:24:05;;;;;;;4.95;0.70;;;3.30;95.40;;;;;;3606167;39;20044;-78
2021/04/11 01:26:33;;;;;;;4.25;1.10;;;3.20;95.40;;;;;;3605878;39;20047;-77
2021/04/11 01:28:59;;;;;;;0.93;0.30;;;3.20;95.50;;;;;;3606091;39;20043;-76
2021/04/11 01:31:29;;;;;;;1.40;0.52;;;3.20;95.60;;;;;;3596934;39;20043;-79
2021/04/11 01:33:55;;;;;;;0.70;0.20;;;3.20;95.70;;;;;;3587054;40;20052;-77
2021/04/11 01:36:24;;;;;;;0.30;0.17;;;3.20;95.80;;;;;;3599827;39;20046;-77
2021/04/11 01:38:51;;;;;;;1.20;0.40;;;3.20;95.80;;;;;;3596681;39;20055;-76
2021/04/11 01:41:32;;;;;;;0.80;0.30;;;3.30;95.80;;;;;;3604894;39;20039;-78
2021/04/11 01:43:59;;;;;;;1.00;0.20;;;3.30;95.80;;;;;;3606071;39;20357;-77
2021/04/11 01:46:25;;;;;;;1.45;0.20;;;3.20;95.70;;;;;;3606194;39;20341;-76
2021/04/11 01:48:53;;;;;;;0.82;0.30;;;3.30;95.80;;;;;;3588416;39;20027;-80
2021/04/11 01:51:29;;;;;;;4.00;0.98;;;3.30;95.80;;;;;;3605997;39;20491;-77
2021/04/11 01:54:06;;;;;;;1.63;0.55;;;3.30;95.90;;;;;;3606117;39;20550;-78
2021/04/11 01:56:32;;;;;;;0.70;0.30;;;3.30;95.90;;;;;;3606263;39;20062;-84
2021/04/11 01:58:58;;;;;;;0.57;0.20;;;3.30;95.90;;;;;;3606521;39;20285;-83
2021/04/11 02:01:31;;;;;;;1.30;0.30;;;3.30;95.80;;;;;;3597047;39;20072;-81
2021/04/11 02:04:02;;;;;;;2.85;1.33;;;3.20;96.20;;;;;;3606389;39;20337;-78
2021/04/11 02:06:29;;;;;;;2.25;0.45;;;3.20;95.80;;;;;;3596330;40;20328;-79
2021/04/11 02:09:00;;;;;;;2.08;0.73;;;3.30;96.00;;;;;;3578595;40;20050;-78
2021/04/11 02:11:27;;;;;;;8.57;0.90;;;3.20;95.80;;;;;;3596499;39;20579;-78
2021/04/11 02:13:53;;;;;;;1.70;0.50;;;3.20;95.80;;;;;;3596426;39;20054;-77
2021/04/11 02:16:28;;;;;;;2.10;0.30;;;3.20;95.80;;;;;;3605895;39;20339;-77
2021/04/11 02:19:25;;;;;;;1.17;0.55;;;3.20;96.20;;;;;;3597616;39;20048;-78
2021/04/11 02:22:10;;;;;;;2.00;0.50;;;3.20;96.30;;;;;;3587124;40;20035;-77
2021/04/11 02:24:41;;;;;;;0.75;0.30;;;3.20;96.30;;;;;;3597167;40;20056;-79
2021/04/11 02:27:08;;;;;;;0.30;0.10;;;3.20;96.50;;;;;;3597262;40;20050;-80
2021/04/11 02:29:35;;;;;;;1.08;0.55;;;3.20;96.50;;;;;;3597859;39;20040;-78
2021/04/11 02:32:02;;;;;;;1.50;0.40;;;3.20;96.40;;;;;;3597856;39;20520;-77
2021/04/11 02:34:32;;;;;;;1.55;0.43;;;3.20;96.50;;;;;;3606596;39;20591;-78
2021/04/11 02:37:01;;;;;;;1.20;0.50;;;3.20;96.60;;;;;;3606985;39;20054;-76
2021/04/11 02:39:33;;;;;;;2.22;0.30;;;3.20;96.50;;;;;;3607043;39;20043;-77
2021/04/11 02:42:06;;;;;;;0.82;0.17;;;3.20;96.70;;;;;;3607363;39;20389;-79
2021/04/11 02:44:40;;;;;;;0.90;0.40;;;3.20;96.60;;;;;;3607254;39;20724;-78
2021/04/11 02:47:07;;;;;;;2.28;0.25;;;3.20;96.60;;;;;;3607144;39;20039;-78
2021/04/11 02:49:33;;;;;;;1.52;0.32;;;3.20;96.60;;;;;;3597635;39;20254;-76
2021/04/11 02:52:04;;;;;;;0.43;0.20;;;3.20;96.90;;;;;;3602135;39;20335;-78
2021/04/11 02:54:30;;;;;;;1.63;0.60;;;3.20;96.80;;;;;;3587871;40;20355;-77
2021/04/11 02:56:58;;;;;;;1.52;0.15;;;3.20;96.80;;;;;;3597203;39;20036;-77
2021/04/11 02:59:24;;;;;;;1.45;0.38;;;3.20;96.90;;;;;;3597392;40;20334;-76
2021/04/11 03:01:52;;;;;;;4.15;0.50;;;3.20;96.90;;;;;;3597157;40;20056;-77
2021/04/11 03:04:20;;;;;;;1.23;0.35;;;3.10;96.80;;;;;;3597425;40;20040;-79
2021/04/11 03:06:56;;;;;;;1.15;0.57;;;3.10;96.80;;;;;;3603901;39;20418;-79
2021/04/11 03:09:34;;;;;;;2.05;0.60;;;3.10;96.90;;;;;;3607475;39;20063;-76
2021/04/11 03:12:03;;;;;;;3.47;0.40;;;3.10;96.90;;;;;;3607210;39;20051;-77
2021/04/11 03:14:33;;;;;;;1.75;0.60;;;3.10;96.90;;;;;;3607699;39;20261;-77
2021/04/11 03:17:03;;;;;;;1.35;0.60;;;3.10;97.00;;;;;;3607405;39;20246;-77
2021/04/11 03:19:34;;;;;;;3.05;0.80;;;3.10;97.10;;;;;;3607296;39;20084;-78
2021/04/11 03:22:01;;;;;;;2.08;0.28;;;3.10;97.10;;;;;;3596132;40;20052;-80
2021/04/11 03:24:27;;;;;;;1.90;0.35;;;3.10;97.10;;;;;;3596031;40;20095;-81
2021/04/11 03:27:14;;;;;;;1.83;0.28;;;3.00;97.20;;;;;;3604612;39;20043;-76
2021/04/11 03:29:46;;;;;;;2.10;0.28;;;3.10;97.30;;;;;;3605873;39;20035;-78
2021/04/11 03:32:29;;;;;;;0.85;0.20;;;3.10;97.20;;;;;;3607283;39;20047;-87
2021/04/11 03:34:58;;;;;;;1.88;0.68;;;3.10;97.20;;;;;;3608232;39;20071;-77
2021/04/11 03:37:26;;;;;;;2.15;0.30;;;3.10;97.20;;;;;;3608126;39;20320;-83
2021/04/11 03:39:52;;;;;;;0.95;0.45;;;3.10;97.20;;;;;;3597694;39;20163;-78
2021/04/11 03:42:22;;;;;;;1.83;0.30;;;3.10;97.20;;;;;;3589873;39;20071;-78
2021/04/11 03:44:48;;;;;;;1.50;0.30;;;3.10;97.20;;;;;;3606328;39;20091;-85
2021/04/11 03:47:21;;;;;;;2.47;0.60;;;3.10;97.20;;;;;;3605342;39;20417;-77
2021/04/11 03:49:57;;;;;;;1.85;0.57;;;3.10;97.40;;;;;;3597947;40;20039;-78
2021/04/11 03:52:42;;;;;;;1.08;0.17;;;3.10;97.30;;;;;;3598179;40;20036;-81
2021/04/11 03:55:10;;;;;;;;;;;3.10;97.30;;;;;;3598041;39;20326;-79
2021/04/11 03:57:50;;;;;;;0.82;0.55;;;3.10;97.20;;;;;;3587949;40;19976;-79
2021/04/11 04:00:27;;;;;;;1.00;0.30;;;3.10;97.30;;;;;;3594138;40;20040;-79
2021/04/11 04:02:59;;;;;;;2.08;0.60;;;3.10;97.20;;;;;;3596967;40;20233;-82
2021/04/11 04:05:27;;;;;;;1.85;0.20;;;3.10;97.40;;;;;;3596880;40;20044;-78
2021/04/11 04:07:56;;;;;;;2.05;0.73;;;3.10;97.40;;;;;;3599179;40;20044;-78
2021/04/11 04:10:52;;;;;;;0.80;0.40;;;3.20;97.40;;;;;;3598422;39;20047;-78
2021/04/11 04:13:51;;;;;;;2.72;1.13;;;3.20;97.40;;;;;;3605209;39;20048;-78
2021/04/11 04:16:46;;;;;;;0.50;0.30;;;3.20;97.40;;;;;;3608792;39;20043;-78
2021/04/11 04:19:31;;;;;;;2.95;0.63;;;3.20;97.50;;;;;;3608237;39;20035;-78
2021/04/11 04:22:15;;;;;;;3.40;0.40;;;3.20;97.40;;;;;;3610007;39;20473;-77
2021/04/11 04:24:48;;;;;;;1.75;0.20;;;3.20;97.40;;;;;;3599627;39;20077;-79
2021/04/11 04:27:59;;;;;;;3.22;0.95;;;3.20;97.40;;;;;;3607440;39;20111;-79
2021/04/11 04:30:41;;;;;;;2.58;0.30;;;3.20;97.40;;;;;;3603358;39;20054;-77
2021/04/11 04:33:35;;;;;;;0.70;0.20;;;3.20;97.40;;;;;;3587461;40;20040;-77
2021/04/11 04:36:11;;;;;;;1.30;0.20;;;3.20;97.40;;;;;;3605523;39;20120;-78
2021/04/11 04:39:01;;;;;;;0.77;0.20;;;3.20;97.50;;;;;;3607308;39;20046;-78
2021/04/11 04:41:50;;;;;;;0.38;0.25;;;3.20;97.50;;;;;;3607139;39;20065;-78
2021/04/11 04:44:45;;;;;;;0.50;0.10;;;3.30;97.50;;;;;;3607037;39;20375;-77
2021/04/11 04:47:46;;;;;;;0.47;0.10;;;3.30;97.60;;;;;;3607300;39;20031;-77
2021/04/11 04:50:25;;;;;;;0.35;0.10;;;3.30;97.60;;;;;;3580063;39;20039;-79
2021/04/11 04:53:42;;;;;;;1.48;0.20;;;3.20;97.50;;;;;;3598060;39;20426;-78
2021/04/11 04:56:15;;;;;;;1.50;0.10;;;3.20;97.50;;;;;;3594976;39;20043;-78
2021/04/11 04:58:49;;;;;;;1.25;0.10;;;3.20;97.40;;;;;;3608164;39;20072;-78
2021/04/11 05:01:30;;;;;;;1.55;0.20;;;3.20;97.40;;;;;;3607269;39;20128;-78
2021/04/11 05:04:03;;;;;;;2.65;0.90;;;3.20;97.60;;;;;;3597624;39;20080;-78
2021/04/11 05:06:39;;;;;;;0.43;0.10;;;3.30;97.80;;;;;;3606557;39;20052;-77
2021/04/11 05:09:19;;;;;;;0.85;0.40;;;3.20;97.40;;;;;;3606781;39;20132;-76
2021/04/11 05:12:03;;;;;;;0.85;0.13;;;3.20;97.50;;;;;;3606421;39;20035;-77
2021/04/11 05:14:36;;;;;;;0.43;0.10;;;3.30;97.50;;;;;;3596995;39;20043;-78
2021/04/11 05:17:47;;;;;;;1.85;0.25;;;3.30;97.50;;;;;;3606477;39;20032;-77
2021/04/11 05:20:17;;;;;;;1.42;0.55;;;3.30;97.60;;;;;;3603634;39;20048;-78
2021/04/11 05:22:52;;;;;;;2.75;0.22;;;3.30;97.60;;;;;;3604521;39;20682;-77
2021/04/11 05:25:22;;;;;;;2.17;0.10;;;3.30;97.60;;;;;;3596332;39;20066;-78
2021/04/11 05:28:04;;;;;;;0.80;0.10;;;3.30;97.50;;;;;;3605992;39;20051;-77
2021/04/11 05:30:45;;;;;;;2.25;0.20;;;3.30;97.50;;;;;;3606171;39;20557;-77
2021/04/11 05:33:16;;;;;;;5.05;0.50;;;3.30;97.50;;;;;;3596939;39;20039;-77
2021/04/11 05:35:43;;;;;;;1.15;0.20;;;3.30;97.40;;;;;;3594823;40;20046;-79
2021/04/11 05:38:31;;;;;;;2.38;0.50;;;3.30;97.40;;;;;;3607002;39;20140;-78
2021/04/11 05:41:07;;;;;;;0.80;0.10;;;3.30;97.40;;;;;;3594638;39;20058;-77
2021/04/11 05:43:41;;;;;;;2.63;0.20;;;3.30;97.40;;;;;;3593247;39;20040;-76
2021/04/11 05:46:32;;;;;;;1.45;0.05;;;3.30;97.40;;;;;;3606947;39;20249;-77
2021/04/11 05:49:01;;;;;;;1.40;0.10;;;3.30;97.30;;;;;;3606229;39;20395;-78
2021/04/11 05:51:43;;;;;;;0.47;0.47;;;3.30;97.20;;;;;;3595630;39;20419;-77
2021/04/11 05:54:45;;;;;;;1.92;0.10;;;3.30;97.20;;;;;;3604882;23;20041;-79
2021/04/11 05:57:35;;;;;;;2.30;0.32;;;3.30;97.10;;;;;;3574293;40;20037;-79
2021/04/11 06:00:08;;;;;;;1.75;0.05;;;3.30;97.20;;;;;;3570757;40;20029;-77
2021/04/11 06:02:39;;;;;;;5.10;0.20;;;3.30;97.20;;;;;;3577241;40;20067;-78
2021/04/11 06:05:14;;;;;;;0.82;0.10;;;3.30;97.30;;;;;;3578439;40;20032;-82
2021/04/11 06:07:43;;;;;;;2.28;0.93;;;3.30;97.30;;;;;;3563988;40;20081;-78
2021/04/11 06:10:15;;;;;;;1.33;0.10;;;3.30;97.30;;;;;;3575385;40;20327;-77
2021/04/11 06:12:57;;;;;;;0.93;0.30;;;3.30;97.30;;;;;;3574354;40;20040;-77
2021/04/11 06:15:32;;;;;;;0.03;0.00;;;3.30;97.30;;;;;;3576802;40;20041;-80
2021/04/11 06:17:59;;;;;;;0.98;0.65;;;3.30;97.20;;;;;;3577338;40;20041;-79
2021/04/11 06:20:27;;;;;;;3.95;0.10;;;3.30;97.10;;;;;;3568079;40;20052;-77
2021/04/11 06:23:16;;;;;;;2.40;0.10;;;3.20;97.20;;;;;;3576901;40;20088;-78
2021/04/11 06:25:59;;;;;;;1.13;0.15;;;3.20;97.20;;;;;;3573440;40;20045;-77
2021/04/11 06:28:47;;;;;;;0.40;0.10;;;3.30;97.20;;;;;;3577024;40;20122;-78
2021/04/11 06:31:29;;;;;;;0.45;0.00;;;3.30;97.20;;;;;;3576402;40;20235;-78
2021/04/11 06:34:01;;;;;;;3.30;0.15;;;3.20;97.10;;;;;;3564715;40;20254;-77
2021/04/11 06:36:42;;;;;;;0.60;0.30;;;3.20;97.10;;;;;;3576714;40;20044;-77
2021/04/11 06:39:16;;;;;;;0.40;0.08;;;3.20;97.20;;;;;;3577417;40;20045;-76
2021/04/11 06:42:03;;;;;;;1.85;0.88;;;3.30;97.10;;;;;;3576968;40;20025;-77
2021/04/11 06:44:53;;;;;;;2.58;0.30;;;3.30;97.10;;;;;;3577020;40;20049;-77
2021/04/11 06:47:36;;;;;;;0.40;0.30;;;3.30;97.10;;;;;;3564723;40;20033;-77
2021/04/11 06:50:25;;;;;;;0.20;0.10;;;3.30;97.00;;;;;;3556601;40;20092;-78
2021/04/11 06:53:13;;;;;;;0.10;0.00;;;3.30;96.90;;;;;;3563510;40;20040;-89
2021/04/11 06:56:17;;;;;;;0.55;0.10;;;3.30;96.60;;;;;;3565450;40;20221;-77
2021/04/11 06:59:10;;;;;;;3.28;0.00;;;3.40;96.80;;;;;;3554539;40;20045;-77
2021/04/11 07:01:51;;;;;;;0.70;0.03;;;3.40;96.70;;;;;;3564985;40;20029;-78
2021/04/11 07:04:22;;;;;;;4.03;0.22;;;3.50;96.60;;;;;;3569962;40;20037;-87
2021/04/11 07:07:18;;;;;;;0.20;0.03;;;3.50;96.50;;;;;;3569331;40;20049;-88
2021/04/11 07:10:22;;;;;;;0.95;0.00;;;3.50;96.30;;;;;;3569034;40;20150;-87
2021/04/11 07:13:19;;;;;;;0.95;0.10;;;3.50;96.10;;;;;;3556260;40;20037;-78
2021/04/11 07:15:57;;;;;;;1.40;0.00;;;3.50;96.00;;;;;;3567679;40;20308;-82
2021/04/11 07:19:05;;;;;;;0.82;0.20;;;3.50;95.90;;;;;;3565750;40;20351;-82
2021/04/11 07:21:57;;;;;;;1.80;0.10;;;3.50;95.60;;;;;;3541567;40;20039;-85
2021/04/11 07:24:41;;;;;;;2.92;0.35;;;3.60;95.60;;;;;;3555784;40;20081;-83
2021/04/11 07:27:31;;;;;;;4.38;0.20;;;3.60;95.60;;;;;;3571384;40;20123;-84
2021/04/11 07:30:13;;;;;;;0.75;0.05;;;3.60;95.60;;;;;;3568236;40;20312;-80
2021/04/11 07:32:57;;;;;;;0.13;0.00;;;3.70;95.60;;;;;;3568981;40;20433;-82
2021/04/11 07:35:41;;;;;;;;;;;3.70;95.70;;;;;;3567998;40;20040;-83
2021/04/11 07:38:30;;;;;;;2.60;0.10;;;3.70;95.20;;;;;;3566876;40;20031;-78
2021/04/11 07:41:21;;;;;;;0.68;0.68;;;3.80;95.40;;;;;;3563615;40;20276;-82
2021/04/11 07:44:03;;;;;;;2.75;0.20;;;3.80;95.20;;;;;;3563527;40;20036;-81
2021/04/11 07:46:59;;;;;;;2.28;0.52;;;3.90;95.20;;;;;;3554743;40;20369;-81
2021/04/11 07:49:56;;;;;;;1.63;0.10;;;3.90;94.80;;;;;;3563396;40;20057;-81
2021/04/11 07:52:32;;;;;;;3.13;0.20;;;4.00;94.70;;;;;;3566603;40;20033;-80
2021/04/11 07:55:17;;;;;;;0.28;0.10;;;4.00;94.20;;;;;;3566633;40;20089;-80
2021/04/11 07:57:50;;;;;;;2.15;0.15;;;4.00;94.30;;;;;;3555116;40;20097;-83
2021/04/11 08:00:56;;;;;;;1.75;0.20;;;4.00;94.50;;;;;;3567545;40;20044;-79
2021/04/11 08:03:31;;;;;;;1.42;0.43;;;4.00;94.20;;;;;;3566463;40;20753;-85
2021/04/11 08:06:30;;;;;;;0.50;0.30;;;4.00;94.50;;;;;;3557914;40;20044;-88
2021/04/11 08:09:30;;;;;;;2.00;0.10;;;4.00;94.10;;;;;;3564251;40;20040;-83
2021/04/11 08:12:15;;;;;;;0.10;0.00;;;3.90;94.00;;;;;;3567436;40;20040;-78
2021/04/11 08:14:50;;;;;;;0.17;0.10;;;3.90;93.90;;;;;;3567169;40;20659;-86
2021/04/11 08:17:22;;;;;;;1.42;0.80;;;4.00;94.10;;;;;;3557662;40;20041;-85
2021/04/11 08:20:22;;;;;;;1.35;0.00;;;4.00;94.30;;;;;;3561891;40;20038;-84
2021/04/11 08:23:15;;;;;;;0.73;0.10;;;4.00;94.20;;;;;;3566686;40;20452;-85
2021/04/11 08:26:03;;;;;;;2.80;0.10;;;4.10;94.20;;;;;;3552971;40;20037;-87
2021/04/11 08:28:35;;;;;;;1.90;0.82;;;4.10;93.50;;;;;;3565510;40;20048;-79
2021/04/11 08:31:13;;;;;;;0.08;0.00;;;4.10;94.00;;;;;;3566426;40;20057;-83
2021/04/11 08:34:17;;;;;;;1.55;0.85;;;4.10;93.90;;;;;;3563129;40;20034;-84
2021/04/11 08:36:52;;;;;;;7.40;0.63;;;4.10;93.20;;;;;;3557367;40;20037;-88
2021/04/11 08:39:59;;;;;;;6.32;0.15;;;4.10;93.30;;;;;;3556185;40;20052;-83
2021/04/11 08:43:01;;;;;;;0.45;0.10;;;4.10;93.00;;;;;;3533909;40;20047;-84
2021/04/11 08:45:51;;;;;;;3.25;0.10;;;4.20;93.30;;;;;;3556641;40;20061;-83
2021/04/11 08:48:44;;;;;;;0.10;0.10;;;4.20;92.40;;;;;;3563011;40;20050;-83
2021/04/11 08:51:29;;;;;;;0.20;0.00;;;4.20;92.60;;;;;;3564554;40;20041;-86
2021/04/11 08:54:16;;;;;;;0.65;0.10;;;4.20;92.70;;;;;;3566092;40;20053;-82
2021/04/11 08:56:52;;;;;;;2.08;0.10;;;4.20;92.40;;;;;;3566384;40;20348;-81
2021/04/11 08:59:17;;;;;;;1.08;0.05;;;4.40;92.80;;;;;;3557454;40;20300;-85
2021/04/11 09:02:26;;;;;;;2.80;0.30;;;4.30;92.70;;;;;;3566149;40;20161;-80
2021/04/11 09:05:29;;;;;;;3.80;0.20;;;4.30;92.80;;;;;;3563539;40;20037;-83
2021/04/11 09:08:25;;;;;;;2.13;0.10;;;4.40;92.80;;;;;;3565251;40;20041;-86
2021/04/11 09:11:11;;;;;;;0.90;0.77;;;4.40;92.30;;;;;;3566377;40;20087;-80
2021/04/11 09:13:58;;;;;;;3.83;0.10;;;4.50;92.00;;;;;;3556753;40;20064;-86
2021/04/11 09:16:39;;;;;;;1.25;0.10;;;4.60;92.10;;;;;;3563346;40;20046;-78
2021/04/11 09:19:05;;;;;;;0.17;0.10;;;4.70;92.70;;;;;;3556903;40;20057;-86
2021/04/11 09:21:49;;;;;;;1.65;0.85;;;4.90;93.00;;;;;;3565255;40;20044;-82
2021/04/11 09:24:30;;;;;;;3.95;0.85;;;5.10;92.90;;;;;;3556862;40;20037;-83
2021/04/11 09:27:20;;;;;;;1.50;0.20;;;5.30;92.20;;;;;;3557059;40;20040;-79
2021/04/11 09:30:09;;;;;;;1.98;0.25;;;5.40;91.80;;;;;;3556008;40;20147;-84
2021/04/11 09:32:35;;;;;;;0.77;0.10;;;5.60;91.10;;;;;;3565362;40;20124;-85
2021/04/11 09:35:39;;;;;;;0.40;0.20;;;5.60;90.80;;;;;;3565613;40;20053;-82
2021/04/11 09:38:33;;;;;;;0.28;0.10;;;5.60;90.20;;;;;;3545353;40;20159;-82
2021/04/11 09:41:39;;;;;;;2.50;0.38;;;5.40;90.10;;;;;;3565580;40;20351;-85
2021/04/11 09:44:36;;;;;;;4.07;0.63;;;5.40;90.00;;;;;;3554602;40;20697;-86
2021/04/11 09:47:19;;;;;;;1.67;0.43;;;5.50;90.00;;;;;;3565537;40;20052;-85
2021/04/11 09:50:15;;;;;;;0.63;0.10;;;5.60;90.70;;;;;;3565875;40;20040;-85
2021/04/11 09:52:56;;;;;;;0.68;0.00;;;5.70;90.60;;;;;;3563359;40;20045;-85
2021/04/11 09:55:46;;;;;;;1.05;0.82;;;5.60;90.30;;;;;;3556424;40;20045;-84
2021/04/11 09:58:34;;;;;;;1.10;0.03;;;5.50;90.20;;;;;;3555721;40;20041;-88
2021/04/11 10:01:15;;;;;;;2.53;0.10;;;5.40;89.00;;;;;;3557503;40;20073;-83
2021/04/11 10:03:41;;;;;;;0.40;0.10;;;5.40;90.60;;;;;;3555281;40;20247;-81
2021/04/11 10:06:39;;;;;;;0.43;0.03;;;5.40;90.30;;;;;;3544459;40;20439;-84
2021/04/11 10:09:37;;;;;;;1.33;0.20;;;5.30;90.30;;;;;;3555242;40;20045;-81
2021/04/11 10:12:25;;;;;;;0.85;0.10;;;5.20;89.00;;;;;;3540597;40;20124;-82
2021/04/11 10:15:16;;;;;;;0.55;0.20;;;5.20;89.50;;;;;;3553604;40;20038;-86
2021/04/11 10:18:29;;;;;;;1.05;0.10;;;5.10;90.20;;;;;;3540059;40;20038;-87
2021/04/11 10:21:24;;;;;;;0.20;0.00;;;5.00;90.30;;;;;;3535033;40;20664;-84
2021/04/11 10:23:55;;;;;;;0.68;0.17;;;5.00;89.10;;;;;;3553470;40;20425;-86
2021/04/11 10:26:29;;;;;;;0.30;0.17;;;4.90;90.60;;;;;;3546668;40;20368;-83
2021/04/11 10:29:00;;;;;;;;;;;4.90;90.90;;;;;;3556275;40;20300;-83
2021/04/11 10:31:37;;;;;;;0.40;0.20;;;5.00;89.80;;;;;;3539480;40;20366;-83
2021/04/11 10:34:22;;;;;;;3.13;0.57;;;5.00;89.90;;;;;;3549060;40;20073;-84
2021/04/11 10:37:00;;;;;;;2.58;0.73;;;4.90;89.50;;;;;;3555551;40;20034;-84
2021/04/11 10:39:50;;;;;;;0.55;0.20;;;4.90;90.50;;;;;;3557047;40;20037;-86
2021/04/11 10:42:44;;;;;;;1.02;0.10;;;5.00;90.70;;;;;;3555543;40;20152;-83
2021/04/11 10:45:22;;;;;;;0.60;0.13;;;5.20;91.00;;;;;;3553144;40;20214;-82
2021/04/11 10:48:13;;;;;;;2.72;0.28;;;5.40;90.60;;;;;;3557036;40;20045;-84
2021/04/11 10:51:15;;;;;;;1.35;0.15;;;5.60;90.90;;;;;;3547895;40;20049;-84
2021/04/11 10:54:07;;;;;;;0.60;0.10;;;5.70;89.50;;;;;;3541550;40;20058;-81
2021/04/11 10:57:08;;;;;;;1.63;0.10;;;5.70;90.10;;;;;;3555258;40;20221;-85
2021/04/11 10:59:52;;;;;;;2.30;0.45;;;5.70;89.40;;;;;;3547404;40;20046;-84
2021/04/11 11:02:25;;;;;;;1.20;0.20;;;5.60;89.60;;;;;;3555961;40;20184;-82
2021/04/11 11:05:09;;;;;;;1.02;0.10;;;5.50;88.00;;;;;;3556046;40;20121;-81
2021/04/11 11:07:44;;;;;;;1.38;0.20;;;5.40;90.50;;;;;;3555570;40;20038;-85
2021/04/11 11:10:26;;;;;;;1.27;0.20;;;5.40;89.40;;;;;;3539245;40;20089;-83
2021/04/11 11:13:10;;;;;;;1.50;0.10;;;5.30;89.50;;;;;;3554722;40;20058;-83
2021/04/11 11:16:03;;;;;;;1.50;0.13;;;5.30;90.10;;;;;;3556931;40;20069;-84
2021/04/11 11:18:52;;;;;;;0.80;0.20;;;5.20;88.80;;;;;;3555752;40;20284;-87
2021/04/11 11:21:37;;;;;;;0.73;0.10;;;5.20;90.40;;;;;;3555919;40;20524;-79
2021/04/11 11:24:34;;;;;;;0.38;0.15;;;5.30;90.20;;;;;;3556557;40;20085;-82
2021/04/11 11:27:20;;;;;;;2.88;0.90;;;5.30;90.00;;;;;;3555720;40;20038;-85
2021/04/11 11:30:13;;;;;;;1.85;0.20;;;5.30;90.60;;;;;;3554841;40;20068;-88
2021/04/11 11:33:12;;;;;;;2.95;0.35;;;5.30;90.60;;;;;;3554400;40;20041;-84
2021/04/11 11:35:56;;;;;;;0.68;0.20;;;5.30;90.70;;;;;;3554553;40;20649;-87
2021/04/11 11:38:32;;;;;;;2.45;0.13;;;5.30;88.90;;;;;;3558671;40;20356;-82
2021/04/11 11:41:10;;;;;;;0.50;0.50;;;5.30;89.40;;;;;;3554957;40;20044;-90
2021/04/11 11:43:41;;;;;;;1.13;0.20;;;5.20;90.40;;;;;;3547500;40;20034;-83
2021/04/11 11:46:26;;;;;;;1.27;0.20;;;5.30;88.00;;;;;;3549114;40;20276;-80
2021/04/11 11:49:14;;;;;;;3.50;0.75;;;5.30;90.70;;;;;;3543238;40;20340;-87
2021/04/11 11:51:40;;;;;;;1.75;0.38;;;5.20;90.30;;;;;;3547446;40;20058;-84
2021/04/11 11:54:22;;;;;;;2.47;0.32;;;5.30;90.30;;;;;;3545353;40;20037;-89
2021/04/11 11:57:03;;;;;;;1.38;0.45;;;5.30;90.30;;;;;;3556776;40;20037;-83
2021/04/11 11:59:34;;;;;;;1.30;0.17;;;5.30;91.00;;;;;;3557622;40;20549;-84
2021/04/11 12:02:16;;;;;;;0.90;0.32;;;5.30;89.60;;;;;;3562805;40;20042;-84
2021/04/11 12:05:05;;;;;;;3.10;1.02;;;5.40;91.00;;;;;;3551263;40;20066;-85
2021/04/11 12:07:44;;;;;;;1.85;1.00;;;5.50;91.00;;;;;;3550898;40;20304;-84
2021/04/11 12:10:28;;;;;;;0.75;0.15;;;5.50;90.30;;;;;;3552268;40;20403;-82
2021/04/11 12:13:00;;;;;;;1.27;0.65;;;5.60;89.70;;;;;;3560088;40;20057;-86
2021/04/11 12:15:31;;;;;;;0.40;0.40;;;5.70;89.90;;;;;;3554626;40;20064;-85
2021/04/11 12:18:12;;;;;;;1.40;0.47;;;5.70;90.30;;;;;;3554549;40;20045;-85
2021/04/11 12:20:53;;;;;;;1.98;0.30;;;5.80;90.30;;;;;;3557521;40;20178;-86
2021/04/11 12:23:27;;;;;;;0.32;0.13;;;6.00;89.90;;;;;;3563733;40;20057;-84
2021/04/11 12:26:15;;;;;;;1.60;0.40;;;6.10;87.50;;;;;;3563885;40;20045;-83
2021/04/11 12:28:43;;;;;;;5.35;0.63;;;6.10;85.90;;;;;;3558248;40;20048;-84
2021/04/11 12:31:33;;;;;;;0.68;0.10;;;6.20;88.30;;;;;;3551887;40;20041;-89
2021/04/11 12:34:41;;;;;;;2.08;0.10;;;6.30;86.30;;;;;;3562081;40;20176;-86
2021/04/11 12:37:15;;;;;;;2.42;0.15;;;6.40;87.30;;;;;;3548662;40;20036;-81
2021/04/11 12:39:41;;;;;;;0.20;0.00;;;6.60;89.60;;;;;;3564679;40;20071;-85
2021/04/11 12:42:31;;;;;;;2.00;0.47;;;6.80;85.90;;;;;;3553389;40;20081;-85
2021/04/11 12:45:37;;;;;;;5.80;1.35;;;6.90;87.50;;;;;;3566339;40;20408;-82
2021/04/11 12:48:33;;;;;;;0.28;0.22;;;6.90;81.30;;;;;;3563412;40;20127;-87
2021/04/11 12:51:17;;;;;;;0.30;0.00;;;7.00;85.10;;;;;;3553974;40;20056;-81
2021/04/11 12:54:02;;;;;;;0.10;0.00;;;7.00;86.30;;;;;;3556567;40;20045;-87
2021/04/11 12:56:30;;;;;;;0.63;0.10;;;7.00;83.10;;;;;;3582166;40;20054;-87
2021/04/11 12:59:01;;;;;;;0.30;0.10;;;7.10;86.10;;;;;;3578207;40;20464;-84
2021/04/11 13:01:54;;;;;;;1.00;0.20;;;7.20;84.50;;;;;;3570184;40;20047;-84
2021/04/11 13:04:35;;;;;;;0.13;0.00;;;7.10;83.10;;;;;;3578723;40;20041;-87
2021/04/11 13:07:11;;;;;;;0.75;0.52;;;7.10;81.10;;;;;;3583924;40;20041;-87
2021/04/11 13:10:22;;;;;;;1.02;0.10;;;7.00;80.90;;;;;;3576553;40;20061;-84
2021/04/11 13:12:48;;;;;;;2.17;0.85;;;6.80;84.80;;;;;;3575443;40;20114;-84
2021/04/11 13:15:50;;;;;;;1.25;0.10;;;6.90;83.80;;;;;;3584844;40;20133;-88
2021/04/11 13:18:25;;;;;;;0.35;0.20;;;7.00;81.70;;;;;;3560650;40;20389;-89
2021/04/11 13:21:09;;;;;;;1.25;0.13;;;6.90;86.50;;;;;;3585074;40;20051;-89
2021/04/11 13:24:11;;;;;;;2.20;0.35;;;7.00;86.00;;;;;;3585015;40;20044;-85
2021/04/11 13:26:49;;;;;;;1.45;0.00;;;7.00;85.00;;;;;;3581579;40;20070;-83
2021/04/11 13:29:21;;;;;;;0.40;0.10;;;7.00;81.70;;;;;;3584888;40;20044;-87
2021/04/11 13:32:36;;;;;;;2.13;0.00;;;7.00;84.20;;;;;;3564377;40;20047;-87
2021/04/11 13:35:24;;;;;;;1.73;0.15;;;7.00;84.10;;;;;;3571404;40;20036;-81
2021/04/11 13:38:03;;;;;;;2.10;0.10;;;7.00;83.20;;;;;;3576014;40;20323;-90
2021/04/11 13:40:33;;;;;;;0.10;0.00;;;7.00;86.90;;;;;;3576078;40;20346;-88
2021/04/11 13:43:01;;;;;;;2.38;1.08;;;7.10;87.10;;;;;;3569293;40;20041;-85
2021/04/11 13:45:38;;;;;;;1.98;0.10;;;7.20;85.10;;;;;;3572914;40;20396;-88
2021/04/11 13:48:14;;;;;;;0.15;0.10;;;7.30;85.90;;;;;;3580103;40;20073;-84
2021/04/11 13:51:32;;;;;;;1.92;0.55;;;7.30;82.70;;;;;;3581462;40;20047;-87
2021/04/11 13:54:03;;;;;;;1.85;0.10;;;7.30;81.60;;;;;;3541149;40;20395;-89
2021/04/11 13:56:59;;;;;;;3.97;0.50;;;7.10;83.90;;;;;;3543275;40;20043;-88
2021/04/11 13:59:45;;;;;;;0.77;0.10;;;7.00;83.30;;;;;;3564528;40;20039;-85
2021/04/11 14:02:33;;;;;;;2.50;0.70;;;6.80;85.90;;;;;;3574308;40;20089;-87
2021/04/11 14:05:22;;;;;;;2.78;0.10;;;6.80;86.80;;;;;;3574030;40;20045;-88